Time;durP1;ratioP1;P1;durP2;ratioP2;P2;SDS_P1;SDS_P2;PMS_P1;PMS_P2;Temp;Humidity;BMP_temperature;BMP_pressure;BME280_temperature;BME280_humidity;BME280_pressure;Samples;Min_cycle;Max_cycle;Signal;HPM_P1;HPM_P2
2022/10/29 00:01:59;;;;;;;;;;;;;;;9.56;100.00;100275.78;5027987;28;19947;-86
2022/10/29 00:04:24;;;;;;;;;;;;;;;9.57;100.00;100274.88;5031003;28;20386;-89
2022/10/29 00:06:49;;;;;;;;;;;;;;;9.62;100.00;100265.00;5030505;28;19921;-87
2022/10/29 00:09:14;;;;;;;;;;;;;;;9.67;100.00;100271.91;5029447;28;20031;-87
2022/10/29 00:11:40;;;;;;;;;;;;;;;9.69;100.00;100270.97;5030802;28;19921;-87
2022/10/29 00:14:05;;;;;;;;;;;;;;;9.74;100.00;100262.88;5029670;28;19921;-88
2022/10/29 00:16:39;;;;;;;;;;;;;;;9.72;100.00;100268.22;5031770;28;19913;-87
2022/10/29 00:19:09;;;;;;;;;;;;;;;9.74;100.00;100262.88;5025329;28;19925;-88
2022/10/29 00:21:34;;;;;;;;;;;;;;;9.74;100.00;100257.59;5029036;28;20407;-87
2022/10/29 00:23:59;;;;;;;;;;;;;;;9.78;100.00;100269.78;5030114;28;19917;-86
2022/10/29 00:26:27;;;;;;;;;;;;;;;9.78;100.00;100267.13;5031702;28;19921;-86
2022/10/29 00:28:53;;;;;;;;;;;;;;;9.80;100.00;100262.69;5030388;28;19960;-87
2022/10/29 00:31:19;;;;;;;;;;;;;;;9.82;100.00;100258.19;5031534;28;19921;-88
2022/10/29 00:33:45;;;;;;;;;;;;;;;9.85;100.00;100260.75;5031645;28;19971;-88
2022/10/29 00:36:15;;;;;;;;;;;;;;;9.85;100.00;100263.41;5031502;28;20399;-88
2022/10/29 00:38:40;;;;;;;;;;;;;;;9.87;100.00;100264.22;5031334;28;19952;-87
2022/10/29 00:41:09;;;;;;;;;;;;;;;9.87;100.00;100261.56;5029086;28;20533;-87
2022/10/29 00:43:35;;;;;;;;;;;;;;;9.89;100.00;100259.75;5044113;28;19921;-88
2022/10/29 00:46:06;;;;;;;;;;;;;;;9.91;100.00;100255.25;5031157;28;20395;-87
2022/10/29 00:48:33;;;;;;;;;;;;;;;9.95;100.00;100261.31;5048968;28;19921;-88
2022/10/29 00:51:00;;;;;;;;;;;;;;;9.94;100.00;100255.16;5032631;28;19921;-90
2022/10/29 00:53:27;;;;;;;;;;;;;;;9.95;100.00;100246.28;5031878;28;19932;-88
2022/10/29 02:29:44;;;;;;;;;;;;;;;10.45;100.00;100202.25;5006490;28;20458;-80
2022/10/29 02:32:09;;;;;;;;;;;;;;;10.47;100.00;100189.84;4994730;28;20004;-84
2022/10/29 02:34:34;;;;;;;;;;;;;;;10.48;100.00;100191.56;4993952;28;19972;-80
2022/10/29 02:36:59;;;;;;;;;;;;;;;10.49;100.00;100186.22;4994127;28;19956;-83
2022/10/29 02:39:25;;;;;;;;;;;;;;;10.50;100.00;100184.44;4994436;28;20387;-84
2022/10/29 02:41:50;;;;;;;;;;;;;;;10.54;100.00;100186.03;4994842;28;19917;-81
2022/10/29 02:44:15;;;;;;;;;;;;;;;10.54;100.00;100191.34;4993509;28;19929;-80
2022/10/29 02:46:40;;;;;;;;;;;;;;;10.53;100.00;100190.50;4993941;28;20418;-80
2022/10/29 02:49:06;;;;;;;;;;;;;;;10.57;100.00;100191.22;4993626;28;19960;-80
2022/10/29 02:51:31;;;;;;;;;;;;;;;10.55;100.00;100187.78;5013221;28;19988;-84
2022/10/29 02:53:56;;;;;;;;;;;;;;;10.58;100.00;100182.38;4994460;28;19940;-82
2022/10/29 02:56:22;;;;;;;;;;;;;;;10.61;100.00;100191.97;4994160;28;20380;-83
2022/10/29 02:58:47;;;;;;;;;;;;;;;10.60;100.00;100182.31;4992565;28;20253;-81
2022/10/29 03:01:12;;;;;;;;;;;;;;;10.61;100.00;100190.22;4993688;28;19918;-80
2022/10/29 03:03:37;;;;;;;;;;;;;;;10.62;100.00;100183.97;5012756;28;19921;-82
2022/10/29 03:06:03;;;;;;;;;;;;;;;10.62;100.00;100177.81;4993746;28;19924;-82
2022/10/29 03:08:28;;;;;;;;;;;;;;;10.64;100.00;100184.81;5012541;28;19929;-81
2022/10/29 03:10:54;;;;;;;;;;;;;;;10.63;100.00;100179.56;5012961;28;19965;-83
2022/10/29 03:13:19;;;;;;;;;;;;;;;10.67;100.00;100181.16;4992308;28;19936;-80
2022/10/29 03:15:44;;;;;;;;;;;;;;;10.67;100.00;100166.16;4993117;28;19917;-81
2022/10/29 03:18:10;;;;;;;;;;;;;;;10.67;100.00;100171.44;5012730;28;20307;-82
2022/10/29 03:20:35;;;;;;;;;;;;;;;10.68;100.00;100170.50;5011955;28;19932;-87
2022/10/29 03:23:01;;;;;;;;;;;;;;;10.68;100.00;100182.91;5012683;28;19918;-81
2022/10/29 03:25:26;;;;;;;;;;;;;;;10.72;100.00;100179.19;5012703;28;19964;-81
2022/10/29 03:27:51;;;;;;;;;;;;;;;10.70;100.00;100171.31;5011528;28;19941;-81
2022/10/29 03:30:16;;;;;;;;;;;;;;;10.73;100.00;100171.19;4994629;28;19929;-85
2022/10/29 03:32:42;;;;;;;;;;;;;;;10.75;100.00;100172.94;5012398;28;19955;-81
2022/10/29 03:35:09;;;;;;;;;;;;;;;10.75;100.00;100172.94;4994977;28;19921;-81
2022/10/29 03:37:34;;;;;;;;;;;;;;;10.78;100.00;100170.16;4994789;28;20024;-81
2022/10/29 03:39:59;;;;;;;;;;;;;;;10.77;100.00;100166.66;4994833;28;20007;-81
2022/10/29 03:42:24;;;;;;;;;;;;;;;10.79;100.00;100164.81;5011111;28;20393;-81
2022/10/29 03:44:50;;;;;;;;;;;;;;;10.78;100.00;100156.91;4990263;28;19968;-82
2022/10/29 03:47:15;;;;;;;;;;;;;;;10.79;100.00;100154.19;4990374;28;19957;-82
2022/10/29 03:49:40;;;;;;;;;;;;;;;10.79;100.00;100148.91;4994389;28;19918;-82
2022/10/29 03:52:05;;;;;;;;;;;;;;;10.83;100.00;100147.00;4988579;28;20008;-82
2022/10/29 07:36:44;;;;;;;;;;;;;;;6.60;100.00;100161.88;4980306;28;19932;-85
2022/10/29 07:39:09;;;;;;;;;;;;;;;6.62;100.00;100170.66;4981920;28;20297;-84
2022/10/29 07:41:34;;;;;;;;;;;;;;;6.60;100.00;100172.41;4981483;28;20057;-83
2022/10/29 07:43:59;;;;;;;;;;;;;;;6.57;100.00;100172.47;4982964;28;20284;-82
2022/10/29 07:46:25;;;;;;;;;;;;;;;6.57;100.00;100172.47;4983466;28;20009;-82
2022/10/29 07:48:50;;;;;;;;;;;;;;;6.60;100.00;100174.19;4982023;28;20365;-83
2022/10/29 07:51:15;;;;;;;;;;;;;;;6.62;100.00;100175.91;4982772;28;19965;-82
2022/10/29 07:53:40;;;;;;;;;;;;;;;6.67;100.00;100179.31;4982852;28;19918;-85
2022/10/29 07:56:06;;;;;;;;;;;;;;;6.63;100.00;100182.88;4983670;28;19957;-90
2022/10/29 07:58:31;;;;;;;;;;;;;;;6.61;100.00;100182.06;4983012;28;19918;-91
2022/10/29 08:00:58;;;;;;;;;;;;;;;6.63;100.00;100176.75;4982613;28;20290;-89
2022/10/29 08:03:23;;;;;;;;;;;;;;;6.62;100.00;100186.44;4965662;28;19999;-91
2022/10/29 08:05:48;;;;;;;;;;;;;;;6.61;100.00;100184.69;4981479;28;20100;-89
2022/10/29 08:08:14;;;;;;;;;;;;;;;6.64;100.00;100178.50;4982882;28;20381;-90
2022/10/29 08:10:39;;;;;;;;;;;;;;;6.62;100.00;100181.19;4983068;28;19922;-91
2022/10/29 08:13:05;;;;;;;;;;;;;;;6.64;100.00;100182.00;4982433;28;19918;-87
2022/10/29 08:15:31;;;;;;;;;;;;;;;6.62;100.00;100183.81;4982865;28;19921;-88
2022/10/29 08:17:56;;;;;;;;;;;;;;;6.65;100.00;100186.38;4982678;28;20348;-89
2022/10/29 08:20:23;;;;;;;;;;;;;;;6.61;100.00;100184.69;4981487;28;19928;-88
2022/10/29 08:22:49;;;;;;;;;;;;;;;6.64;100.00;100187.28;4981844;28;19929;-90
2022/10/29 08:25:15;;;;;;;;;;;;;;;6.67;100.00;100179.31;4982636;28;20293;-89
2022/10/29 08:27:40;;;;;;;;;;;;;;;6.64;100.00;100183.78;4982653;28;19922;-91
2022/10/29 08:30:06;;;;;;;;;;;;;;;6.67;100.00;100176.69;4982658;28;19925;-88
2022/10/29 08:32:31;;;;;;;;;;;;;;;6.66;100.00;100176.72;4983505;28;19921;-88
2022/10/29 08:34:57;;;;;;;;;;;;;;;6.65;100.00;100173.22;4981199;28;19925;-89
2022/10/29 08:37:22;;;;;;;;;;;;;;;6.65;100.00;100167.06;4981861;28;19971;-90
2022/10/29 08:39:47;;;;;;;;;;;;;;;6.63;100.00;100169.72;4981407;28;19922;-87
2022/10/29 08:42:21;;;;;;;;;;;;;;;6.69;100.00;100168.75;4981517;28;19918;-84
2022/10/29 08:44:57;;;;;;;;;;;;;;;6.71;100.00;100167.78;4981581;28;20258;-87
2022/10/29 08:47:23;;;;;;;;;;;;;;;6.74;100.00;100164.25;4981038;28;20348;-89
2022/10/29 08:49:51;;;;;;;;;;;;;;;6.70;100.00;100168.72;4980572;28;19917;-86
2022/10/29 08:52:25;;;;;;;;;;;;;;;6.75;100.00;100165.09;4981530;28;20407;-84
2022/10/29 08:55:03;;;;;;;;;;;;;;;6.73;100.00;100165.13;4979287;28;19973;-88
2022/10/29 08:57:30;;;;;;;;;;;;;;;6.77;100.00;100168.59;4980246;28;20019;-88
2022/10/29 09:00:00;;;;;;;;;;;;;;;6.71;100.00;100175.69;4981668;28;19917;-88
2022/10/29 09:02:25;;;;;;;;;;;;;;;6.73;100.00;100168.66;4980593;28;20024;-83
2022/10/29 09:04:50;;;;;;;;;;;;;;;6.76;100.00;100172.09;4980641;28;20001;-91
2022/10/29 09:07:19;;;;;;;;;;;;;;;6.80;100.00;100185.19;4980213;28;19918;-87
2022/10/29 09:09:47;;;;;;;;;;;;;;;6.79;100.00;100179.94;4967397;28;19921;-89
2022/10/29 09:12:38;;;;;;;;;;;;;;;6.81;100.00;100180.78;4974131;28;20081;-88
2022/10/29 09:15:13;;;;;;;;;;;;;;;6.82;100.00;100177.25;4983908;28;19918;-87
2022/10/29 09:17:38;;;;;;;;;;;;;;;6.84;100.00;100176.31;4984515;28;19929;-86
2022/10/29 09:20:15;;;;;;;;;;;;;;;6.85;100.00;100178.03;4983974;28;19918;-88
2022/10/29 09:22:53;;;;;;;;;;;;;;;6.85;100.00;100162.25;4984531;28;19961;-87
2022/10/29 09:25:26;;;;;;;;;;;;;;;6.85;100.00;100161.38;4984284;28;19968;-83
2022/10/29 09:27:51;;;;;;;;;;;;;;;6.83;100.00;100157.91;4984984;28;20487;-88
2022/10/29 09:30:18;;;;;;;;;;;;;;;6.85;100.00;100156.97;4984709;28;20016;-86
2022/10/29 09:32:56;;;;;;;;;;;;;;;6.86;100.00;100152.56;4981883;28;19965;-83
2022/10/29 09:35:27;;;;;;;;;;;;;;;6.87;100.00;100149.03;4918986;28;1836188;-83
2022/10/29 09:37:57;;;;;;;;;;;;;;;6.86;100.00;100147.28;4951832;28;19961;-88
2022/10/29 09:40:23;;;;;;;;;;;;;;;6.86;100.00;100142.03;4984200;28;19930;-88
2022/10/29 09:42:49;;;;;;;;;;;;;;;6.89;100.00;100147.22;4985140;28;19945;-86
2022/10/29 09:45:16;;;;;;;;;;;;;;;6.85;100.00;100138.53;4985888;28;20377;-86
2022/10/29 09:48:00;;;;;;;;;;;;;;;6.85;100.00;100137.69;4985059;28;19918;-86
2022/10/29 09:50:34;;;;;;;;;;;;;;;6.86;100.00;100127.09;4974033;28;19922;-84
2022/10/29 09:53:00;;;;;;;;;;;;;;;6.90;100.00;100120.84;4985277;28;20381;-83
2022/10/29 09:55:29;;;;;;;;;;;;;;;6.90;100.00;100120.00;4983756;28;19929;-84
2022/10/29 09:57:56;;;;;;;;;;;;;;;6.89;100.00;100115.63;4984179;28;19918;-87
2022/10/29 10:00:23;;;;;;;;;;;;;;;6.86;100.00;100106.03;4984720;28;20038;-87
2022/10/29 10:02:54;;;;;;;;;;;;;;;6.89;100.00;100110.34;4984744;28;19918;-86
2022/10/29 10:05:24;;;;;;;;;;;;;;;6.87;100.00;100112.16;4983245;28;19918;-89
2022/10/29 10:08:22;;;;;;;;;;;;;;;6.88;100.00;100114.75;4983072;28;19922;-84
2022/10/29 10:10:50;;;;;;;;;;;;;;;6.90;100.00;100112.09;4951671;28;19922;-84
2022/10/29 10:13:16;;;;;;;;;;;;;;;6.89;100.00;100115.63;4984683;28;19918;-89
2022/10/29 10:15:47;;;;;;;;;;;;;;;6.88;100.00;100111.28;4966973;28;19918;-87
2022/10/29 10:18:13;;;;;;;;;;;;;;;6.93;100.00;100101.50;4965627;28;20284;-84
2022/10/29 10:20:39;;;;;;;;;;;;;;;6.88;100.00;100103.38;4983296;28;19953;-86
2022/10/29 10:23:21;;;;;;;;;;;;;;;6.86;100.00;100110.41;4984629;28;19924;-85
2022/10/29 10:25:47;;;;;;;;;;;;;;;6.89;100.00;100097.19;4983334;28;19918;-85
2022/10/29 10:28:23;;;;;;;;;;;;;;;6.88;100.00;100100.72;4982969;28;19960;-92
2022/10/29 10:31:05;;;;;;;;;;;;;;;6.88;100.00;100095.47;4982742;28;19922;-85
2022/10/29 10:33:32;;;;;;;;;;;;;;;6.89;100.00;100095.44;4966409;28;20017;-84
2022/10/29 10:36:03;;;;;;;;;;;;;;;6.89;100.00;100095.44;4981842;28;19925;-85
2022/10/29 10:38:35;;;;;;;;;;;;;;;6.86;100.00;100084.06;4983199;28;19977;-89
2022/10/29 10:41:05;;;;;;;;;;;;;;;6.85;100.00;100085.84;4974255;28;19962;-89
2022/10/29 10:43:30;;;;;;;;;;;;;;;6.84;100.00;100081.47;4983383;28;20360;-87
2022/10/29 10:45:58;;;;;;;;;;;;;;;6.89;100.00;100078.72;4984651;28;20009;-88
2022/10/29 10:48:26;;;;;;;;;;;;;;;6.88;100.00;100077.03;4982458;28;20011;-89
2022/10/29 10:51:09;;;;;;;;;;;;;;;6.87;100.00;100073.50;4980899;28;19992;-88
2022/10/29 10:53:37;;;;;;;;;;;;;;;6.88;100.00;100063.84;4983779;28;20357;-88
2022/10/29 10:56:02;;;;;;;;;;;;;;;6.89;100.00;100062.94;4983906;28;19945;-88
2022/10/29 10:58:28;;;;;;;;;;;;;;;6.92;100.00;100078.66;4984088;28;19969;-86
2022/10/29 11:00:56;;;;;;;;;;;;;;;6.89;100.00;100069.09;4983972;28;19922;-87
2022/10/29 11:03:27;;;;;;;;;;;;;;;6.93;100.00;100048.78;4982784;28;19921;-84
2022/10/29 11:05:58;;;;;;;;;;;;;;;6.94;100.00;100065.47;4982586;28;19922;-89
2022/10/29 11:08:33;;;;;;;;;;;;;;;6.97;100.00;100068.88;4982818;28;19972;-87
2022/10/29 11:11:08;;;;;;;;;;;;;;;6.93;100.00;100054.06;4983456;28;19918;-84
2022/10/29 11:13:33;;;;;;;;;;;;;;;6.96;100.00;100054.00;4973375;28;19917;-86
2022/10/29 11:16:17;;;;;;;;;;;;;;;6.95;100.00;100049.63;4982355;28;19972;-88
2022/10/29 11:18:47;;;;;;;;;;;;;;;6.95;100.00;100046.13;4966082;28;19992;-83
2022/10/29 11:21:15;;;;;;;;;;;;;;;6.95;100.00;100046.13;4981840;28;19921;-90
2022/10/29 11:23:59;;;;;;;;;;;;;;;6.91;100.00;100040.06;4966153;28;19921;-86
2022/10/29 11:26:28;;;;;;;;;;;;;;;6.95;100.00;100040.84;4983106;28;19946;-86
2022/10/29 11:28:59;;;;;;;;;;;;;;;6.93;100.00;100038.25;4982920;28;19922;-88
2022/10/29 11:31:28;;;;;;;;;;;;;;;6.92;100.00;100025.97;4981046;28;19921;-90
2022/10/29 11:34:13;;;;;;;;;;;;;;;6.94;100.00;100024.19;4981687;28;19976;-83
2022/10/29 11:36:41;;;;;;;;;;;;;;;6.90;100.00;100039.19;4983023;28;19961;-86
2022/10/29 11:39:09;;;;;;;;;;;;;;;6.89;100.00;100020.78;4981643;28;20416;-85
2022/10/29 11:41:42;;;;;;;;;;;;;;;6.90;100.00;100019.88;4983005;28;19926;-85
2022/10/29 11:44:15;;;;;;;;;;;;;;;6.91;100.00;100019.00;4982992;28;20273;-83
2022/10/29 11:46:50;;;;;;;;;;;;;;;6.91;100.00;100013.72;4982800;28;20369;-89
2022/10/29 11:49:15;;;;;;;;;;;;;;;6.93;100.00;100006.66;4980938;28;20009;-87
2022/10/29 11:51:46;;;;;;;;;;;;;;;6.89;100.00;100004.97;4982813;28;20354;-87
2022/10/29 11:54:24;;;;;;;;;;;;;;;6.95;100.00;100007.47;4982807;28;19928;-83
2022/10/29 11:56:55;;;;;;;;;;;;;;;6.96;100.00;100006.56;4983899;28;20350;-84
2022/10/29 11:59:39;;;;;;;;;;;;;;;6.92;100.00;100007.53;4982907;28;20011;-85
2022/10/29 12:02:28;;;;;;;;;;;;;;;6.95;100.00;100002.19;4965589;28;19922;-88
2022/10/29 12:04:56;;;;;;;;;;;;;;;6.94;100.00;99996.97;4981066;28;19972;-87
2022/10/29 12:07:40;;;;;;;;;;;;;;;6.91;100.00;99988.25;4982943;28;19917;-87
2022/10/29 12:10:24;;;;;;;;;;;;;;;6.97;100.00;99975.81;4981915;28;19922;-88
2022/10/29 12:13:25;;;;;;;;;;;;;;;6.92;100.00;99989.09;4972965;28;19929;-82
2022/10/29 12:16:08;;;;;;;;;;;;;;;6.97;100.00;99981.09;4912813;29;19923;-85
2022/10/29 12:18:33;;;;;;;;;;;;;;;6.95;100.00;99982.91;4975706;28;19918;-87
2022/10/29 12:21:08;;;;;;;;;;;;;;;6.94;100.00;99982.03;4981840;28;19976;-85
2022/10/29 12:23:33;;;;;;;;;;;;;;;6.93;100.00;99985.56;4982805;28;19924;-83
2022/10/29 12:26:05;;;;;;;;;;;;;;;6.95;100.00;99978.50;4982698;28;19918;-85
2022/10/29 12:28:38;;;;;;;;;;;;;;;6.93;100.00;99977.66;4972675;28;19922;-85
2022/10/29 12:31:12;;;;;;;;;;;;;;;6.92;100.00;99978.56;4982684;28;20392;-83
2022/10/29 12:33:38;;;;;;;;;;;;;;;6.94;100.00;99978.53;4981871;28;19921;-88
2022/10/29 12:36:14;;;;;;;;;;;;;;;6.97;100.00;99975.81;4961633;28;19928;-84
2022/10/29 12:38:53;;;;;;;;;;;;;;;6.95;100.00;99975.84;4972282;28;19960;-87
2022/10/29 12:41:38;;;;;;;;;;;;;;;6.95;100.00;99973.22;4972892;28;20400;-83
2022/10/29 12:44:07;;;;;;;;;;;;;;;6.97;100.00;99966.13;4966409;28;19925;-89
2022/10/29 12:46:58;;;;;;;;;;;;;;;6.98;100.00;99967.88;4976668;28;19926;-85
2022/10/29 12:49:35;;;;;;;;;;;;;;;6.98;100.00;99962.59;4975210;28;20420;-83
2022/10/29 12:52:07;;;;;;;;;;;;;;;6.95;100.00;99961.81;4975930;28;19922;-85
2022/10/29 12:54:32;;;;;;;;;;;;;;;6.99;100.00;99959.06;4976297;28;20407;-83
2022/10/29 12:57:04;;;;;;;;;;;;;;;7.00;100.00;99960.78;4975140;28;19924;-88
2022/10/29 12:59:32;;;;;;;;;;;;;;;6.99;100.00;99953.81;4974725;28;20077;-85
2022/10/29 13:02:15;;;;;;;;;;;;;;;6.96;100.00;99953.88;4976209;28;19922;-84
2022/10/29 13:05:01;;;;;;;;;;;;;;;7.01;100.00;99953.78;4974857;28;19929;-87
2022/10/29 13:07:26;;;;;;;;;;;;;;;7.00;100.00;99952.88;4976084;28;19918;-83
2022/10/29 13:10:11;;;;;;;;;;;;;;;6.99;100.00;99945.91;4974782;28;20019;-86
2022/10/29 13:12:54;;;;;;;;;;;;;;;6.99;100.00;99939.75;4982559;28;20008;-91
2022/10/29 13:15:26;;;;;;;;;;;;;;;6.97;100.00;99933.66;4975375;28;19919;-88
2022/10/29 13:17:54;;;;;;;;;;;;;;;7.00;100.00;99933.59;4975607;28;19965;-84
2022/10/29 13:20:26;;;;;;;;;;;;;;;6.97;100.00;99923.13;4974193;28;20009;-83
2022/10/29 13:22:56;;;;;;;;;;;;;;;6.97;100.00;99923.13;4975344;28;20345;-83
2022/10/29 13:25:27;;;;;;;;;;;;;;;6.96;100.00;99927.53;4975824;28;19955;-88
2022/10/29 13:27:52;;;;;;;;;;;;;;;6.96;100.00;99924.91;4974387;28;19929;-87
2022/10/29 13:30:20;;;;;;;;;;;;;;;6.94;100.00;99924.09;4975860;28;19922;-83
2022/10/29 13:32:46;;;;;;;;;;;;;;;6.99;100.00;99927.47;4982058;28;19922;-83
2022/10/29 13:35:17;;;;;;;;;;;;;;;6.96;100.00;99917.00;4975301;28;19945;-82
2022/10/29 13:37:45;;;;;;;;;;;;;;;6.96;100.00;99916.16;4984391;28;19922;-83
2022/10/29 13:40:29;;;;;;;;;;;;;;;6.93;100.00;99921.50;4985754;28;19918;-87
2022/10/29 13:43:01;;;;;;;;;;;;;;;6.96;100.00;99924.06;4985392;28;20206;-83
2022/10/29 13:45:27;;;;;;;;;;;;;;;6.97;100.00;99923.97;4985143;28;19963;-86
2022/10/29 13:47:59;;;;;;;;;;;;;;;7.01;100.00;99925.66;4984295;28;19922;-84
2022/10/29 13:50:25;;;;;;;;;;;;;;;7.00;100.00;99921.28;4973812;28;20384;-87
2022/10/29 13:52:52;;;;;;;;;;;;;;;7.00;100.00;99909.88;4985134;28;19918;-88
2022/10/29 13:55:18;;;;;;;;;;;;;;;7.01;100.00;99904.56;4985504;28;19925;-86
2022/10/29 13:58:00;;;;;;;;;;;;;;;6.98;100.00;99903.78;4984877;28;19921;-86
2022/10/29 14:00:26;;;;;;;;;;;;;;;7.00;100.00;99905.47;4975289;28;19975;-88
2022/10/29 14:02:57;;;;;;;;;;;;;;;6.99;100.00;99905.50;4985009;28;19918;-84
2022/10/29 14:05:25;;;;;;;;;;;;;;;6.99;100.00;99906.38;4982902;28;19918;-88
2022/10/29 14:07:54;;;;;;;;;;;;;;;6.95;100.00;99910.00;4985138;28;20024;-86
2022/10/29 14:10:30;;;;;;;;;;;;;;;6.98;100.00;99909.91;4967280;28;20328;-84
2022/10/29 14:13:14;;;;;;;;;;;;;;;7.02;100.00;99906.31;4984335;28;19922;-83
2022/10/29 14:15:57;;;;;;;;;;;;;;;6.99;100.00;99903.75;4984807;28;19925;-86
2022/10/29 14:18:26;;;;;;;;;;;;;;;7.04;100.00;99904.50;4984837;28;19918;-90
2022/10/29 14:20:55;;;;;;;;;;;;;;;7.03;100.00;99900.13;4983462;28;20000;-87
2022/10/29 14:23:20;;;;;;;;;;;;;;;7.02;100.00;99910.69;4984713;28;19918;-82
2022/10/29 14:25:49;;;;;;;;;;;;;;;7.04;100.00;99903.63;4983300;28;19929;-86
2022/10/29 14:28:16;;;;;;;;;;;;;;;7.03;100.00;99907.16;4967382;28;19917;-88
2022/10/29 14:30:41;;;;;;;;;;;;;;;7.04;100.00;99903.63;4983051;28;20045;-87
2022/10/29 14:33:26;;;;;;;;;;;;;;;7.02;100.00;99901.03;4966748;28;20465;-84
2022/10/29 14:35:54;;;;;;;;;;;;;;;7.02;100.00;99911.56;4983523;28;19922;-88
2022/10/29 14:38:22;;;;;;;;;;;;;;;7.04;100.00;99912.41;4982361;28;19933;-86
2022/10/29 14:40:47;;;;;;;;;;;;;;;7.06;100.00;99902.66;4983052;28;20008;-87
2022/10/29 14:43:18;;;;;;;;;;;;;;;7.04;100.00;99912.41;4982436;28;20452;-88
2022/10/29 14:45:43;;;;;;;;;;;;;;;7.06;100.00;99917.63;4982759;28;19918;-89
2022/10/29 14:48:14;;;;;;;;;;;;;;;7.09;100.00;99917.53;4982514;28;20325;-88
2022/10/29 14:50:43;;;;;;;;;;;;;;;7.08;100.00;99919.31;4980706;28;19918;-84
2022/10/29 14:53:21;;;;;;;;;;;;;;;7.06;100.00;99918.47;4982619;28;19937;-85
2022/10/29 14:55:48;;;;;;;;;;;;;;;7.04;100.00;99920.31;4982165;28;20009;-88
2022/10/29 14:58:19;;;;;;;;;;;;;;;7.04;100.00;99915.03;4982249;28;20012;-91
2022/10/29 15:00:55;;;;;;;;;;;;;;;7.04;100.00;99903.63;4983761;28;19966;-84
2022/10/29 15:03:22;;;;;;;;;;;;;;;7.04;100.00;99908.91;4983190;28;19918;-90
2022/10/29 15:05:48;;;;;;;;;;;;;;;7.02;100.00;99916.84;4980916;28;19925;-83
2022/10/29 15:08:17;;;;;;;;;;;;;;;6.99;100.00;99913.41;4983647;28;19918;-88
2022/10/29 15:10:53;;;;;;;;;;;;;;;6.97;100.00;99908.19;4983617;28;19918;-85
2022/10/29 15:13:21;;;;;;;;;;;;;;;7.00;100.00;99908.09;4982799;28;20013;-84
2022/10/29 15:15:54;;;;;;;;;;;;;;;6.98;100.00;99909.91;4983756;28;19964;-83
2022/10/29 15:18:20;;;;;;;;;;;;;;;7.01;100.00;99907.19;4982933;28;19921;-87
2022/10/29 15:20:46;;;;;;;;;;;;;;;6.98;100.00;99907.28;4982115;28;20008;-94
2022/10/29 15:23:38;;;;;;;;;;;;;;;7.03;100.00;99901.91;4965407;28;20018;-84
2022/10/29 15:26:07;;;;;;;;;;;;;;;7.01;100.00;99888.75;4978545;28;19922;-90
2022/10/29 15:28:38;;;;;;;;;;;;;;;7.01;100.00;99894.03;4981910;28;19961;-83
2022/10/29 15:31:29;;;;;;;;;;;;;;;7.00;100.00;99888.81;4974589;28;19972;-88
2022/10/29 15:34:00;;;;;;;;;;;;;;;6.97;100.00;99879.19;4970977;28;19922;-84
2022/10/29 15:36:25;;;;;;;;;;;;;;;7.00;100.00;99887.03;4983532;28;19929;-93
2022/10/29 15:38:50;;;;;;;;;;;;;;;6.98;100.00;99885.34;4978263;28;19926;-90
2022/10/29 15:41:18;;;;;;;;;;;;;;;6.95;100.00;99894.19;4971289;28;19926;-83
2022/10/29 15:43:51;;;;;;;;;;;;;;;6.96;100.00;99895.94;4981564;28;19929;-87
2022/10/29 15:46:23;;;;;;;;;;;;;;;6.98;100.00;99880.94;4981491;28;20005;-86
2022/10/29 15:48:49;;;;;;;;;;;;;;;6.97;100.00;99889.72;4980675;28;20013;-85
2022/10/29 15:51:14;;;;;;;;;;;;;;;6.99;100.00;99890.59;4978903;28;20024;-87
2022/10/29 15:53:40;;;;;;;;;;;;;;;6.97;100.00;99889.72;4983923;28;19964;-92
2022/10/29 15:56:05;;;;;;;;;;;;;;;6.93;100.00;99880.19;4982278;28;19922;-85
2022/10/29 15:58:31;;;;;;;;;;;;;;;6.96;100.00;99895.94;4982295;28;19988;-82
2022/10/29 16:00:56;;;;;;;;;;;;;;;6.98;100.00;99894.09;4978598;28;19981;-81
2022/10/29 16:03:23;;;;;;;;;;;;;;;7.00;100.00;99891.44;4982462;28;19926;-87
2022/10/29 16:05:52;;;;;;;;;;;;;;;6.97;100.00;99886.25;4981262;28;20310;-93
2022/10/29 16:08:31;;;;;;;;;;;;;;;7.02;100.00;99884.34;4981436;28;19945;-90
2022/10/29 16:11:01;;;;;;;;;;;;;;;6.97;100.00;99881.84;4982691;28;19933;-90
2022/10/29 16:13:28;;;;;;;;;;;;;;;6.94;100.00;99892.47;4985020;28;20346;-86
2022/10/29 16:15:53;;;;;;;;;;;;;;;6.96;100.00;99882.75;4989912;28;20381;-94
2022/10/29 16:18:18;;;;;;;;;;;;;;;7.00;100.00;99884.38;5005489;28;19928;-85
2022/10/29 16:20:43;;;;;;;;;;;;;;;6.97;100.00;99880.97;5005088;28;19970;-90
2022/10/29 16:23:10;;;;;;;;;;;;;;;6.96;100.00;99890.66;5004687;28;19918;-93
2022/10/29 16:25:35;;;;;;;;;;;;;;;6.98;100.00;99880.94;4987595;28;19989;-87
2022/10/29 16:28:00;;;;;;;;;;;;;;;6.96;100.00;99890.66;5005570;28;19921;-93
2022/10/29 16:30:25;;;;;;;;;;;;;;;6.97;100.00;99881.84;5004875;28;19921;-88
2022/10/29 16:32:54;;;;;;;;;;;;;;;6.96;100.00;99884.53;4991044;28;20000;-90
2022/10/29 16:35:20;;;;;;;;;;;;;;;6.98;100.00;99880.94;5004811;28;19926;-85
2022/10/29 16:37:46;;;;;;;;;;;;;;;6.92;100.00;99878.47;5007399;28;19925;-86
2022/10/29 16:40:11;;;;;;;;;;;;;;;6.94;100.00;99881.06;5006251;28;19941;-83
2022/10/29 16:42:37;;;;;;;;;;;;;;;6.91;100.00;99882.03;5008285;28;20332;-86
2022/10/29 16:45:03;;;;;;;;;;;;;;;6.95;100.00;99888.06;5004768;28;19925;-88
2022/10/29 16:47:28;;;;;;;;;;;;;;;6.95;100.00;99886.28;5005671;28;20351;-87
2022/10/29 16:49:53;;;;;;;;;;;;;;;6.95;100.00;99896.81;5007328;28;19917;-88
2022/10/29 16:52:19;;;;;;;;;;;;;;;6.97;100.00;99891.50;5007427;28;20020;-88
2022/10/29 16:54:44;;;;;;;;;;;;;;;6.96;100.00;99895.06;5005319;28;20261;-87
2022/10/29 16:57:09;;;;;;;;;;;;;;;6.98;100.00;99898.53;5005931;28;19969;-86
2022/10/29 16:59:35;;;;;;;;;;;;;;;6.96;100.00;99901.19;5008039;28;19918;-91
2022/10/29 17:02:00;;;;;;;;;;;;;;;6.95;100.00;99894.19;5007184;28;19914;-84
2022/10/29 17:04:25;;;;;;;;;;;;;;;6.94;100.00;99897.75;5005547;28;19922;-92
2022/10/29 17:06:51;;;;;;;;;;;;;;;6.94;100.00;99895.13;5007225;28;19955;-92
2022/10/29 17:09:16;;;;;;;;;;;;;;;6.95;100.00;99898.59;5005432;28;19925;-85
2022/10/29 17:11:41;;;;;;;;;;;;;;;6.97;100.00;99899.41;5002544;28;19976;-87
2022/10/29 17:14:07;;;;;;;;;;;;;;;6.91;100.00;99901.31;5003743;28;20321;-87
2022/10/29 17:16:34;;;;;;;;;;;;;;;6.90;100.00;99898.72;4986157;28;19918;-88
2022/10/29 17:19:00;;;;;;;;;;;;;;;6.89;100.00;99903.13;5002193;28;20288;-91
2022/10/29 17:21:28;;;;;;;;;;;;;;;6.90;100.00;99893.44;5003011;28;19926;-93
2022/10/29 17:23:53;;;;;;;;;;;;;;;6.91;100.00;99903.94;5002709;28;19922;-86
2022/10/29 17:26:18;;;;;;;;;;;;;;;6.88;100.00;99897.91;5005950;28;20391;-84
2022/10/29 17:28:44;;;;;;;;;;;;;;;6.88;100.00;99897.91;5009298;28;19918;-86
2022/10/29 17:31:12;;;;;;;;;;;;;;;6.86;100.00;99899.69;5007370;28;20392;-86
2022/10/29 17:33:37;;;;;;;;;;;;;;;6.87;100.00;99901.44;5002864;28;20011;-86
2022/10/29 17:36:04;;;;;;;;;;;;;;;6.90;100.00;99907.47;5000559;28;19968;-93
2022/10/29 17:38:29;;;;;;;;;;;;;;;6.88;100.00;99906.66;4986876;28;20362;-94
2022/10/29 17:40:55;;;;;;;;;;;;;;;6.91;100.00;99903.09;4995309;28;19928;-91
2022/10/29 17:43:20;;;;;;;;;;;;;;;6.93;100.00;99905.69;4995757;28;20016;-87
2022/10/29 17:45:45;;;;;;;;;;;;;;;6.94;100.00;99908.28;4996264;28;19925;-82
2022/10/29 17:48:11;;;;;;;;;;;;;;;6.96;100.00;99906.47;4985690;28;19922;-93
2022/10/29 17:50:36;;;;;;;;;;;;;;;6.92;100.00;99904.81;5003171;28;19956;-93
2022/10/29 17:53:05;;;;;;;;;;;;;;;6.93;100.00;99908.31;4990816;28;19922;-90
2022/10/29 17:55:31;;;;;;;;;;;;;;;6.92;100.00;99910.06;4996387;28;20300;-87
2022/10/29 17:57:57;;;;;;;;;;;;;;;6.94;100.00;99908.28;4996901;28;19976;-92
2022/10/29 18:00:26;;;;;;;;;;;;;;;6.96;100.00;99914.38;4992970;28;19928;-90
2022/10/29 18:02:51;;;;;;;;;;;;;;;6.95;100.00;99920.53;4995555;28;19932;-87
2022/10/29 18:05:17;;;;;;;;;;;;;;;6.91;100.00;99924.16;4996528;28;19925;-87
2022/10/29 18:07:42;;;;;;;;;;;;;;;6.91;100.00;99918.91;4992875;28;19925;-95